Admiral — WCY6529 — position and weather

sailwx.info

Track history (hours):
 
Tides and Currents Weather Stations Pressure Air Temp Water Temp Dewpoint Dewpoint Depression Visibility Wind Speed Wind Dir Waves Ship Positions

Admiral

Owner: CROWLEY MARINE SERVICES INC, SEATTLE, WA. More information available from US FCC via Universal Licensing System and Coast Guard Vessel Documentation Center.

Last reported at 2014-Oct-31 21:33 UTC. Time now 2014-Oct-31 22:12 UTC.
Position N 33°54' W 118°28'.

; draft 5.3 m.

Type: Tug. MMSI: 366755020.

Date/timePositionNaut miles runAvg speedWind from/ knotsBaromVisibWave heightAir tempDewpointWater temp
2014-Oct-31 21:33N 33°54' W 118°28'1 0.6
2014-Oct-31 20:33N 33°54' W 118°27'2 1.8
2014-Oct-31 19:33N 33°52' W 118°28'10 8.7
2014-Oct-31 18:22N 33°43' W 118°22'5 5.6
2014-Oct-31 17:30N 33°44' W 118°17'0 0.2
2014-Oct-31 15:06N 33°44' W 118°17'0 0.0
2014-Oct-31 14:32N 33°44' W 118°17'0 0.0
2014-Oct-31 13:28N 33°44' W 118°17'1 1.3
2014-Oct-31 12:33N 33°43' W 118°16'1 0.6
2014-Oct-31 11:33N 33°44' W 118°15'1 0.6
2014-Oct-31 09:27N 33°44' W 118°17'0 0.0
2014-Oct-31 08:29N 33°44' W 118°17'0 0.0
2014-Oct-31 07:23N 33°44' W 118°17'0 0.0
2014-Oct-31 06:20N 33°44' W 118°17'2 0.8
2014-Oct-31 03:12N 33°43' W 118°14'3 1.6
2014-Oct-31 01:33N 33°45' W 118°13'3 2.7
2014-Oct-31 00:33N 33°43' W 118°11'2 1.6
2014-Oct-30 23:34N 33°44' W 118°12'1 1.4
2014-Oct-30 22:33N 33°43' W 118°11'4 4.3
2014-Oct-30 21:33N 33°43' W 118°16'1 1.0
2014-Oct-30 20:33N 33°44' W 118°17'0 0.0
2014-Oct-30 19:33N 33°44' W 118°17'0 0.0
2014-Oct-30 18:33N 33°44' W 118°17'1 0.7
2014-Oct-30 17:33N 33°44' W 118°16'0 0.0
2014-Oct-30 16:33N 33°44' W 118°16'1 0.7
2014-Oct-30 15:33N 33°44' W 118°17'0 0.0
2014-Oct-30 14:33N 33°44' W 118°17'0 0.0
2014-Oct-30 13:33N 33°44' W 118°17'0 0.0
2014-Oct-30 12:33N 33°44' W 118°17'0 0.0
2014-Oct-30 11:33N 33°44' W 118°17'0 0.0
2014-Oct-30 10:33N 33°44' W 118°17'0 0.0
2014-Oct-30 09:32N 33°44' W 118°17'0 0.0
2014-Oct-30 08:33N 33°44' W 118°17'0 0.0
2014-Oct-30 07:33N 33°44' W 118°17'0 0.0
2014-Oct-30 06:33N 33°44' W 118°17'0 0.0
2014-Oct-30 05:33N 33°44' W 118°17'0 0.0
2014-Oct-30 04:33N 33°44' W 118°17'0 0.0
2014-Oct-30 03:33N 33°44' W 118°17'1 0.8
2014-Oct-30 02:33N 33°44' W 118°16'1 0.6
2014-Oct-30 01:33N 33°44' W 118°16'1 1.0
2014-Oct-30 00:26N 33°44' W 118°17'0 0.0
2014-Oct-29 23:32N 33°44' W 118°17'1 1.3
2014-Oct-29 22:33N 33°46' W 118°17'3 3.2
2014-Oct-29 21:33N 33°43' W 118°15'2 2.2
2014-Oct-29 20:33N 33°44' W 118°17'0 0.0
2014-Oct-29 19:33N 33°44' W 118°17'0 0.0
2014-Oct-29 18:33N 33°44' W 118°17'0 0.0
2014-Oct-29 17:33N 33°44' W 118°17'0 0.0
2014-Oct-29 16:33N 33°44' W 118°17'0 0.0
2014-Oct-29 15:33N 33°44' W 118°17'1 1.1
2014-Oct-29 14:33N 33°44' W 118°16'1 0.8
2014-Oct-29 13:33N 33°43' W 118°16'0 0.3
2014-Oct-29 12:33N 33°43' W 118°15'1 1.1
2014-Oct-29 11:33N 33°44' W 118°15'1 1.4
2014-Oct-29 10:33N 33°44' W 118°17'0 0.0
2014-Oct-29 09:33N 33°44' W 118°17'0 0.0
2014-Oct-29 08:33N 33°44' W 118°17'0 0.0
2014-Oct-29 07:33N 33°44' W 118°17'0 0.0
2014-Oct-29 06:33N 33°44' W 118°17'0 0.0
2014-Oct-29 05:30N 33°44' W 118°17'0 0.0
2014-Oct-29 04:33N 33°44' W 118°17'0 0.0
2014-Oct-29 03:33N 33°44' W 118°17'3 3.0
2014-Oct-29 02:34N 33°44' W 118°13'2 2.3
2014-Oct-29 01:33N 33°46' W 118°14'3 3.3
2014-Oct-29 00:32N 33°43' W 118°16'1 0.7
2014-Oct-28 23:05N 33°44' W 118°17'0 0.0
2014-Oct-28 22:27N 33°44' W 118°17'0 0.0
2014-Oct-28 21:31N 33°44' W 118°17'0 0.0
2014-Oct-28 20:22N 33°44' W 118°17'0 0.0
2014-Oct-28 17:06N 33°44' W 118°17'0 0.0
2014-Oct-28 16:32N 33°44' W 118°17'0 0.0
2014-Oct-28 14:24N 33°44' W 118°17'3 3.0
2014-Oct-28 13:33N 33°46' W 118°14'1 0.9
2014-Oct-28 12:33N 33°46' W 118°13'2 2.4
2014-Oct-28 11:33N 33°43' W 118°13'3 2.7
2014-Oct-28 10:28N 33°44' W 118°17'0 0.0
2014-Oct-28 09:21N 33°44' W 118°17'0 0.0
2014-Oct-28 08:25N 33°44' W 118°17'0 0.0
2014-Oct-28 07:31N 33°44' W 118°17'0 0.0
2014-Oct-28 06:29N 33°44' W 118°17'0 0.0
2014-Oct-28 05:29N 33°44' W 118°17'0 0.0
2014-Oct-28 04:32N 33°44' W 118°17'0 0.0
2014-Oct-28 03:32N 33°44' W 118°17'0 0.0
2014-Oct-28 02:33N 33°44' W 118°17'0 0.0
2014-Oct-28 01:33N 33°44' W 118°17'0 0.0
2014-Oct-28 00:28N 33°44' W 118°17'0 0.0
2014-Oct-27 23:29N 33°44' W 118°17'1 1.3
2014-Oct-27 22:33N 33°44' W 118°15'2 2.4
2014-Oct-27 21:33N 33°44' W 118°13'2 2.1
2014-Oct-27 20:31N 33°43' W 118°15'2 2.1
2014-Oct-27 19:27N 33°44' W 118°17'0 0.0
2014-Oct-27 18:30N 33°44' W 118°17'0 0.0
2014-Oct-27 16:33N 33°44' W 118°17'0 0.0
2014-Oct-27 12:15N 33°44' W 118°17'1 1.6
2014-Oct-27 11:33N 33°44' W 118°16'0 0.2
2014-Oct-27 10:34N 33°44' W 118°16'0 0.4
2014-Oct-27 09:33N 33°43' W 118°16'1 1.0
2014-Oct-27 08:30N 33°44' W 118°17'0 0.0
2014-Oct-27 07:33N 33°44' W 118°17'0 0.0
2014-Oct-27 06:32N 33°44' W 118°17'0 0.0
2014-Oct-27 05:30N 33°44' W 118°17'0 0.0
2014-Oct-27 04:33N 33°44' W 118°17'0 0.0
2014-Oct-27 03:32N 33°44' W 118°17'0 0.0
2014-Oct-27 01:33N 33°44' W 118°17'0 0.0
2014-Oct-27 00:33N 33°44' W 118°17'0 0.0
2014-Oct-26 23:30N 33°44' W 118°17'0 0.0
2014-Oct-26 22:29N 33°44' W 118°17'0 0.0
2014-Oct-26 20:10N 33°44' W 118°17'1 1.3
2014-Oct-26 19:33N 33°45' W 118°16'0 0.5
2014-Oct-26 18:33N 33°45' W 118°16'1 1.2
2014-Oct-26 17:32N 33°44' W 118°17'0 0.0
2014-Oct-26 16:33N 33°44' W 118°17'0 0.0
2014-Oct-26 15:33N 33°44' W 118°17'0 0.0
2014-Oct-26 14:33N 33°44' W 118°17'0 0.1
2014-Oct-26 13:17N 33°44' W 118°17'1 1.3
2014-Oct-26 12:33N 33°45' W 118°16'3 3.0
2014-Oct-26 11:33N 33°43' W 118°14'2 1.6
2014-Oct-26 10:32N 33°43' W 118°16'1 1.1
2014-Oct-26 09:32N 33°44' W 118°17'0 0.0
2014-Oct-26 08:15N 33°44' W 118°17'0 0.0
2014-Oct-26 05:27N 33°44' W 118°17'0 0.0
2014-Oct-26 03:23N 33°44' W 118°17'0 0.0
2014-Oct-26 02:31N 33°44' W 118°17'0 0.0
2014-Oct-26 01:33N 33°44' W 118°17'0 0.0
2014-Oct-26 00:32N 33°44' W 118°17'0 0.0
2014-Oct-25 23:33N 33°44' W 118°17'0 0.0
2014-Oct-25 22:33N 33°44' W 118°17'0 0.0
2014-Oct-25 21:33N 33°44' W 118°17'0 0.0
2014-Oct-25 20:33N 33°44' W 118°17'0 0.0
2014-Oct-25 19:33N 33°44' W 118°17'0 0.0
2014-Oct-25 18:33N 33°44' W 118°17'0 0.0
2014-Oct-25 17:33N 33°44' W 118°17'0 0.0
2014-Oct-25 16:33N 33°44' W 118°17'0 0.0
2014-Oct-25 15:33N 33°44' W 118°17'0 0.0
2014-Oct-25 14:33N 33°44' W 118°17'0 0.0
2014-Oct-25 13:33N 33°44' W 118°17'0 0.2
2014-Oct-25 12:33N 33°44' W 118°17'0 0.2
2014-Oct-25 11:33N 33°44' W 118°17'0 0.0
2014-Oct-25 10:33N 33°44' W 118°17'0 0.0
2014-Oct-25 09:33N 33°44' W 118°17'0 0.0
2014-Oct-25 08:33N 33°44' W 118°17'0 0.0
2014-Oct-25 07:33N 33°44' W 118°17'0 0.0
2014-Oct-25 06:33N 33°44' W 118°17'0 0.0
2014-Oct-25 05:34N 33°44' W 118°17'0 0.0
2014-Oct-25 04:33N 33°44' W 118°17'0 0.0
2014-Oct-25 03:33N 33°44' W 118°17'0 0.0
2014-Oct-25 02:33N 33°44' W 118°17'3 3.4
2014-Oct-25 01:33N 33°45' W 118°13'0 0.1
2014-Oct-25 00:33N 33°45' W 118°13'3 2.9
2014-Oct-24 23:33N 33°42' W 118°11'3 3.3
2014-Oct-24 22:33N 33°45' W 118°13'0 0.0
2014-Oct-24 21:33N 33°45' W 118°13'0 0.2
2014-Oct-24 20:33N 33°45' W 118°13'1 0.6
2014-Oct-24 19:33N 33°46' W 118°13'0 0.2
2014-Oct-24 18:33N 33°45' W 118°13'3 3.3
2014-Oct-24 17:34N 33°43' W 118°16'1 1.3
2014-Oct-24 16:33N 33°44' W 118°17'6 5.6
2014-Oct-24 15:33N 33°44' W 118°10'2 2.4
2014-Oct-24 14:33N 33°45' W 118°13'2 1.6
2014-Oct-24 13:33N 33°46' W 118°13'2 2.0
2014-Oct-24 12:33N 33°44' W 118°13'1 1.3
2014-Oct-24 11:34N 33°44' W 118°12'3 3.0
2014-Oct-24 10:34N 33°46' W 118°13'0 0.1
2014-Oct-24 09:34N 33°46' W 118°13'3 3.2
2014-Oct-24 08:33N 33°44' W 118°17'0 0.0
2014-Oct-24 07:33N 33°44' W 118°17'0 0.0
2014-Oct-24 06:33N 33°44' W 118°17'0 0.0
2014-Oct-24 05:33N 33°44' W 118°17'0 0.0
2014-Oct-24 04:33N 33°44' W 118°17'0 0.0
2014-Oct-24 03:33N 33°44' W 118°17'0 0.0
2014-Oct-24 02:33N 33°44' W 118°17'1 1.5
2014-Oct-24 01:33N 33°44' W 118°15'1 1.1
2014-Oct-24 00:33N 33°43' W 118°16'1 1.1
2014-Oct-23 23:33N 33°44' W 118°17'0 0.0
2014-Oct-23 22:33N 33°44' W 118°17'5151.6
2014-Oct-23 21:33N 34°36' W 118°17'5252.2
2014-Oct-23 20:33N 33°44' W 118°12'2 1.9
2014-Oct-23 19:33N 33°46' W 118°13'1 0.5
2014-Oct-23 18:33N 33°45' W 118°13'0 0.0
2014-Oct-23 17:33N 33°45' W 118°13'0 0.0
2014-Oct-23 16:33N 33°45' W 118°13'0 0.4
2014-Oct-23 15:33N 33°45' W 118°13'0 0.3
2014-Oct-23 14:33N 33°45' W 118°13'1 0.8
2014-Oct-23 13:33N 33°44' W 118°13'1 0.8
2014-Oct-23 12:33N 33°45' W 118°13'1 0.8
2014-Oct-23 11:33N 33°45' W 118°12'1 0.5
2014-Oct-23 10:33N 33°44' W 118°12'1 1.0
2014-Oct-23 09:33N 33°45' W 118°13'0 0.0
2014-Oct-23 08:33N 33°45' W 118°13'1 0.8
2014-Oct-23 07:33N 33°46' W 118°13'0 0.5
2014-Oct-23 06:33N 33°46' W 118°13'3 3.4
2014-Oct-23 05:33N 33°44' W 118°17'0 0.2
2014-Oct-23 04:33N 33°44' W 118°17'0 0.0
2014-Oct-23 03:33N 33°44' W 118°17'0 0.0
2014-Oct-23 02:33N 33°44' W 118°17'1 1.2
2014-Oct-23 01:33N 33°43' W 118°16'3 2.6
2014-Oct-23 00:33N 33°46' W 118°16'1 0.9
2014-Oct-22 23:34N 33°45' W 118°16'1 0.7
2014-Oct-22 22:33N 33°44' W 118°17'0 0.0
2014-Oct-22 21:33N 33°44' W 118°17'2 2.1
2014-Oct-22 20:33N 33°43' W 118°15'3 3.0
2014-Oct-22 19:33N 33°46' W 118°13'0 0.3
2014-Oct-22 18:33N 33°45' W 118°13'3 2.5
2014-Oct-22 17:33N 33°44' W 118°11'0 0.2
2014-Oct-22 16:33N 33°43' W 118°11'5 2.4
2014-Oct-22 14:32N 33°44' W 118°17'0 0.0
2014-Oct-22 13:33N 33°44' W 118°17'3 3.1
2014-Oct-22 12:33N 33°45' W 118°13'0 0.1
2014-Oct-22 11:33N 33°45' W 118°13'2 2.4
2014-Oct-22 10:33N 33°44' W 118°16'1 0.5
2014-Oct-22 09:27N 33°43' W 118°16'1 1.3
2014-Oct-22 08:33N 33°44' W 118°17'0 0.0
2014-Oct-22 07:32N 33°44' W 118°17'0 0.0
2014-Oct-22 06:20N 33°44' W 118°17'0 0.0
2014-Oct-22 05:32N 33°44' W 118°17'0 0.0
2014-Oct-22 04:33N 33°44' W 118°17'0 0.0
2014-Oct-22 03:33N 33°44' W 118°17'0 0.1
2014-Oct-22 02:33N 33°44' W 118°17'0 0.1
2014-Oct-22 01:33N 33°44' W 118°17'0 0.0
2014-Oct-22 00:33N 33°44' W 118°17'0 0.0
2014-Oct-21 23:33N 33°44' W 118°17'0 0.0
2014-Oct-21 22:33N 33°44' W 118°17'  
Track history (hours):
 
Tides and Currents Weather Stations Pressure Air Temp Water Temp Dewpoint Dewpoint Depression Visibility Wind Speed Wind Dir Waves Ship Positions

Admiral

Owner: CROWLEY MARINE SERVICES INC, SEATTLE, WA. More information available from US FCC via Universal Licensing System and Coast Guard Vessel Documentation Center.

Last reported at 2014-Oct-31 21:33 UTC. Time now 2014-Oct-31 22:12 UTC.
Position N 33°54' W 118°28'.

; draft 5.3 m.

Type: Tug. MMSI: 366755020.

Date/timePositionNaut miles runAvg speedWind from/ knotsBaromVisibWave heightAir tempDewpointWater temp
2014-Oct-31 21:33N 33°54' W 118°28'1 0.6
2014-Oct-31 20:33N 33°54' W 118°27'2 1.8
2014-Oct-31 19:33N 33°52' W 118°28'10 8.7
2014-Oct-31 18:22N 33°43' W 118°22'5 5.6
2014-Oct-31 17:30N 33°44' W 118°17'0 0.2
2014-Oct-31 15:06N 33°44' W 118°17'0 0.0
2014-Oct-31 14:32N 33°44' W 118°17'0 0.0
2014-Oct-31 13:28N 33°44' W 118°17'1 1.3
2014-Oct-31 12:33N 33°43' W 118°16'1 0.6
2014-Oct-31 11:33N 33°44' W 118°15'1 0.6
2014-Oct-31 09:27N 33°44' W 118°17'0 0.0
2014-Oct-31 08:29N 33°44' W 118°17'0 0.0
2014-Oct-31 07:23N 33°44' W 118°17'0 0.0
2014-Oct-31 06:20N 33°44' W 118°17'2 0.8
2014-Oct-31 03:12N 33°43' W 118°14'3 1.6
2014-Oct-31 01:33N 33°45' W 118°13'3 2.7
2014-Oct-31 00:33N 33°43' W 118°11'2 1.6
2014-Oct-30 23:34N 33°44' W 118°12'1 1.4
2014-Oct-30 22:33N 33°43' W 118°11'4 4.3
2014-Oct-30 21:33N 33°43' W 118°16'1 1.0
2014-Oct-30 20:33N 33°44' W 118°17'0 0.0
2014-Oct-30 19:33N 33°44' W 118°17'0 0.0
2014-Oct-30 18:33N 33°44' W 118°17'1 0.7
2014-Oct-30 17:33N 33°44' W 118°16'0 0.0
2014-Oct-30 16:33N 33°44' W 118°16'1 0.7
2014-Oct-30 15:33N 33°44' W 118°17'0 0.0
2014-Oct-30 14:33N 33°44' W 118°17'0 0.0
2014-Oct-30 13:33N 33°44' W 118°17'0 0.0
2014-Oct-30 12:33N 33°44' W 118°17'0 0.0
2014-Oct-30 11:33N 33°44' W 118°17'0 0.0
2014-Oct-30 10:33N 33°44' W 118°17'0 0.0
2014-Oct-30 09:32N 33°44' W 118°17'0 0.0
2014-Oct-30 08:33N 33°44' W 118°17'0 0.0
2014-Oct-30 07:33N 33°44' W 118°17'0 0.0
2014-Oct-30 06:33N 33°44' W 118°17'0 0.0
2014-Oct-30 05:33N 33°44' W 118°17'0 0.0
2014-Oct-30 04:33N 33°44' W 118°17'0 0.0
2014-Oct-30 03:33N 33°44' W 118°17'1 0.8
2014-Oct-30 02:33N 33°44' W 118°16'1 0.6
2014-Oct-30 01:33N 33°44' W 118°16'1 1.0
2014-Oct-30 00:26N 33°44' W 118°17'0 0.0
2014-Oct-29 23:32N 33°44' W 118°17'1 1.3
2014-Oct-29 22:33N 33°46' W 118°17'3 3.2
2014-Oct-29 21:33N 33°43' W 118°15'2 2.2
2014-Oct-29 20:33N 33°44' W 118°17'0 0.0
2014-Oct-29 19:33N 33°44' W 118°17'0 0.0
2014-Oct-29 18:33N 33°44' W 118°17'0 0.0
2014-Oct-29 17:33N 33°44' W 118°17'0 0.0
2014-Oct-29 16:33N 33°44' W 118°17'0 0.0
2014-Oct-29 15:33N 33°44' W 118°17'1 1.1
2014-Oct-29 14:33N 33°44' W 118°16'1 0.8
2014-Oct-29 13:33N 33°43' W 118°16'0 0.3
2014-Oct-29 12:33N 33°43' W 118°15'1 1.1
2014-Oct-29 11:33N 33°44' W 118°15'1 1.4
2014-Oct-29 10:33N 33°44' W 118°17'0 0.0
2014-Oct-29 09:33N 33°44' W 118°17'0 0.0
2014-Oct-29 08:33N 33°44' W 118°17'0 0.0
2014-Oct-29 07:33N 33°44' W 118°17'0 0.0
2014-Oct-29 06:33N 33°44' W 118°17'0 0.0
2014-Oct-29 05:30N 33°44' W 118°17'0 0.0
2014-Oct-29 04:33N 33°44' W 118°17'0 0.0
2014-Oct-29 03:33N 33°44' W 118°17'3 3.0
2014-Oct-29 02:34N 33°44' W 118°13'2 2.3
2014-Oct-29 01:33N 33°46' W 118°14'3 3.3
2014-Oct-29 00:32N 33°43' W 118°16'1 0.7
2014-Oct-28 23:05N 33°44' W 118°17'0 0.0
2014-Oct-28 22:27N 33°44' W 118°17'0 0.0
2014-Oct-28 21:31N 33°44' W 118°17'0 0.0
2014-Oct-28 20:22N 33°44' W 118°17'0 0.0
2014-Oct-28 17:06N 33°44' W 118°17'0 0.0
2014-Oct-28 16:32N 33°44' W 118°17'0 0.0
2014-Oct-28 14:24N 33°44' W 118°17'3 3.0
2014-Oct-28 13:33N 33°46' W 118°14'1 0.9
2014-Oct-28 12:33N 33°46' W 118°13'2 2.4
2014-Oct-28 11:33N 33°43' W 118°13'3 2.7
2014-Oct-28 10:28N 33°44' W 118°17'0 0.0
2014-Oct-28 09:21N 33°44' W 118°17'0 0.0
2014-Oct-28 08:25N 33°44' W 118°17'0 0.0
2014-Oct-28 07:31N 33°44' W 118°17'0 0.0
2014-Oct-28 06:29N 33°44' W 118°17'0 0.0
2014-Oct-28 05:29N 33°44' W 118°17'0 0.0
2014-Oct-28 04:32N 33°44' W 118°17'0 0.0
2014-Oct-28 03:32N 33°44' W 118°17'0 0.0
2014-Oct-28 02:33N 33°44' W 118°17'0 0.0
2014-Oct-28 01:33N 33°44' W 118°17'0 0.0
2014-Oct-28 00:28N 33°44' W 118°17'0 0.0
2014-Oct-27 23:29N 33°44' W 118°17'1 1.3
2014-Oct-27 22:33N 33°44' W 118°15'2 2.4
2014-Oct-27 21:33N 33°44' W 118°13'2 2.1
2014-Oct-27 20:31N 33°43' W 118°15'2 2.1
2014-Oct-27 19:27N 33°44' W 118°17'0 0.0
2014-Oct-27 18:30N 33°44' W 118°17'0 0.0
2014-Oct-27 16:33N 33°44' W 118°17'0 0.0
2014-Oct-27 12:15N 33°44' W 118°17'1 1.6
2014-Oct-27 11:33N 33°44' W 118°16'0 0.2
2014-Oct-27 10:34N 33°44' W 118°16'0 0.4
2014-Oct-27 09:33N 33°43' W 118°16'1 1.0
2014-Oct-27 08:30N 33°44' W 118°17'0 0.0
2014-Oct-27 07:33N 33°44' W 118°17'0 0.0
2014-Oct-27 06:32N 33°44' W 118°17'0 0.0
2014-Oct-27 05:30N 33°44' W 118°17'0 0.0
2014-Oct-27 04:33N 33°44' W 118°17'0 0.0
2014-Oct-27 03:32N 33°44' W 118°17'0 0.0
2014-Oct-27 01:33N 33°44' W 118°17'0 0.0
2014-Oct-27 00:33N 33°44' W 118°17'0 0.0
2014-Oct-26 23:30N 33°44' W 118°17'0 0.0
2014-Oct-26 22:29N 33°44' W 118°17'0 0.0
2014-Oct-26 20:10N 33°44' W 118°17'1 1.3
2014-Oct-26 19:33N 33°45' W 118°16'0 0.5
2014-Oct-26 18:33N 33°45' W 118°16'1 1.2
2014-Oct-26 17:32N 33°44' W 118°17'0 0.0
2014-Oct-26 16:33N 33°44' W 118°17'0 0.0
2014-Oct-26 15:33N 33°44' W 118°17'0 0.0
2014-Oct-26 14:33N 33°44' W 118°17'0 0.1
2014-Oct-26 13:17N 33°44' W 118°17'1 1.3
2014-Oct-26 12:33N 33°45' W 118°16'3 3.0
2014-Oct-26 11:33N 33°43' W 118°14'2 1.6
2014-Oct-26 10:32N 33°43' W 118°16'1 1.1
2014-Oct-26 09:32N 33°44' W 118°17'0 0.0
2014-Oct-26 08:15N 33°44' W 118°17'0 0.0
2014-Oct-26 05:27N 33°44' W 118°17'0 0.0
2014-Oct-26 03:23N 33°44' W 118°17'0 0.0
2014-Oct-26 02:31N 33°44' W 118°17'0 0.0
2014-Oct-26 01:33N 33°44' W 118°17'0 0.0
2014-Oct-26 00:32N 33°44' W 118°17'0 0.0
2014-Oct-25 23:33N 33°44' W 118°17'0 0.0
2014-Oct-25 22:33N 33°44' W 118°17'0 0.0
2014-Oct-25 21:33N 33°44' W 118°17'0 0.0
2014-Oct-25 20:33N 33°44' W 118°17'0 0.0
2014-Oct-25 19:33N 33°44' W 118°17'0 0.0
2014-Oct-25 18:33N 33°44' W 118°17'0 0.0
2014-Oct-25 17:33N 33°44' W 118°17'0 0.0
2014-Oct-25 16:33N 33°44' W 118°17'0 0.0
2014-Oct-25 15:33N 33°44' W 118°17'0 0.0
2014-Oct-25 14:33N 33°44' W 118°17'0 0.0
2014-Oct-25 13:33N 33°44' W 118°17'0 0.2
2014-Oct-25 12:33N 33°44' W 118°17'0 0.2
2014-Oct-25 11:33N 33°44' W 118°17'0 0.0
2014-Oct-25 10:33N 33°44' W 118°17'0 0.0
2014-Oct-25 09:33N 33°44' W 118°17'0 0.0
2014-Oct-25 08:33N 33°44' W 118°17'0 0.0
2014-Oct-25 07:33N 33°44' W 118°17'0 0.0
2014-Oct-25 06:33N 33°44' W 118°17'0 0.0
2014-Oct-25 05:34N 33°44' W 118°17'0 0.0
2014-Oct-25 04:33N 33°44' W 118°17'0 0.0
2014-Oct-25 03:33N 33°44' W 118°17'0 0.0
2014-Oct-25 02:33N 33°44' W 118°17'3 3.4
2014-Oct-25 01:33N 33°45' W 118°13'0 0.1
2014-Oct-25 00:33N 33°45' W 118°13'3 2.9
2014-Oct-24 23:33N 33°42' W 118°11'3 3.3
2014-Oct-24 22:33N 33°45' W 118°13'0 0.0
2014-Oct-24 21:33N 33°45' W 118°13'0 0.2
2014-Oct-24 20:33N 33°45' W 118°13'1 0.6
2014-Oct-24 19:33N 33°46' W 118°13'0 0.2
2014-Oct-24 18:33N 33°45' W 118°13'3 3.3
2014-Oct-24 17:34N 33°43' W 118°16'1 1.3
2014-Oct-24 16:33N 33°44' W 118°17'6 5.6
2014-Oct-24 15:33N 33°44' W 118°10'2 2.4
2014-Oct-24 14:33N 33°45' W 118°13'2 1.6
2014-Oct-24 13:33N 33°46' W 118°13'2 2.0
2014-Oct-24 12:33N 33°44' W 118°13'1 1.3
2014-Oct-24 11:34N 33°44' W 118°12'3 3.0
2014-Oct-24 10:34N 33°46' W 118°13'0 0.1
2014-Oct-24 09:34N 33°46' W 118°13'3 3.2
2014-Oct-24 08:33N 33°44' W 118°17'0 0.0
2014-Oct-24 07:33N 33°44' W 118°17'0 0.0
2014-Oct-24 06:33N 33°44' W 118°17'0 0.0
2014-Oct-24 05:33N 33°44' W 118°17'0 0.0
2014-Oct-24 04:33N 33°44' W 118°17'0 0.0
2014-Oct-24 03:33N 33°44' W 118°17'0 0.0
2014-Oct-24 02:33N 33°44' W 118°17'1 1.5
2014-Oct-24 01:33N 33°44' W 118°15'1 1.1
2014-Oct-24 00:33N 33°43' W 118°16'1 1.1
2014-Oct-23 23:33N 33°44' W 118°17'0 0.0
2014-Oct-23 22:33N 33°44' W 118°17'5151.6
2014-Oct-23 21:33N 34°36' W 118°17'5252.2
2014-Oct-23 20:33N 33°44' W 118°12'2 1.9
2014-Oct-23 19:33N 33°46' W 118°13'1 0.5
2014-Oct-23 18:33N 33°45' W 118°13'0 0.0
2014-Oct-23 17:33N 33°45' W 118°13'0 0.0
2014-Oct-23 16:33N 33°45' W 118°13'0 0.4
2014-Oct-23 15:33N 33°45' W 118°13'0 0.3
2014-Oct-23 14:33N 33°45' W 118°13'1 0.8
2014-Oct-23 13:33N 33°44' W 118°13'1 0.8
2014-Oct-23 12:33N 33°45' W 118°13'1 0.8
2014-Oct-23 11:33N 33°45' W 118°12'1 0.5
2014-Oct-23 10:33N 33°44' W 118°12'1 1.0
2014-Oct-23 09:33N 33°45' W 118°13'0 0.0
2014-Oct-23 08:33N 33°45' W 118°13'1 0.8
2014-Oct-23 07:33N 33°46' W 118°13'0 0.5
2014-Oct-23 06:33N 33°46' W 118°13'3 3.4
2014-Oct-23 05:33N 33°44' W 118°17'0 0.2
2014-Oct-23 04:33N 33°44' W 118°17'0 0.0
2014-Oct-23 03:33N 33°44' W 118°17'0 0.0
2014-Oct-23 02:33N 33°44' W 118°17'1 1.2
2014-Oct-23 01:33N 33°43' W 118°16'3 2.6
2014-Oct-23 00:33N 33°46' W 118°16'1 0.9
2014-Oct-22 23:34N 33°45' W 118°16'1 0.7
2014-Oct-22 22:33N 33°44' W 118°17'0 0.0
2014-Oct-22 21:33N 33°44' W 118°17'2 2.1
2014-Oct-22 20:33N 33°43' W 118°15'3 3.0
2014-Oct-22 19:33N 33°46' W 118°13'0 0.3
2014-Oct-22 18:33N 33°45' W 118°13'3 2.5
2014-Oct-22 17:33N 33°44' W 118°11'0 0.2
2014-Oct-22 16:33N 33°43' W 118°11'5 2.4
2014-Oct-22 14:32N 33°44' W 118°17'0 0.0
2014-Oct-22 13:33N 33°44' W 118°17'3 3.1
2014-Oct-22 12:33N 33°45' W 118°13'0 0.1
2014-Oct-22 11:33N 33°45' W 118°13'2 2.4
2014-Oct-22 10:33N 33°44' W 118°16'1 0.5
2014-Oct-22 09:27N 33°43' W 118°16'1 1.3
2014-Oct-22 08:33N 33°44' W 118°17'0 0.0
2014-Oct-22 07:32N 33°44' W 118°17'0 0.0
2014-Oct-22 06:20N 33°44' W 118°17'0 0.0
2014-Oct-22 05:32N 33°44' W 118°17'0 0.0
2014-Oct-22 04:33N 33°44' W 118°17'0 0.0
2014-Oct-22 03:33N 33°44' W 118°17'0 0.1
2014-Oct-22 02:33N 33°44' W 118°17'0 0.1
2014-Oct-22 01:33N 33°44' W 118°17'0 0.0
2014-Oct-22 00:33N 33°44' W 118°17'0 0.0
2014-Oct-21 23:33N 33°44' W 118°17'0 0.0
2014-Oct-21 22:33N 33°44' W 118°17'  

Dump ship's entire track history